sensor_id;sensor_type;location;lat;lon;timestamp;P1;durP1;ratioP1;P2;durP2;ratioP2
53890;SDS011;41337;51.400;-2.342;2022-11-20T00:03:34;18.52;;;8.82;;
53890;SDS011;41337;51.400;-2.342;2022-11-20T00:08:35;14.88;;;7.70;;
53890;SDS011;41337;51.400;-2.342;2022-11-20T00:13:59;17.95;;;8.57;;
53890;SDS011;41337;51.400;-2.342;2022-11-20T00:19:01;16.33;;;7.35;;
53890;SDS011;41337;51.400;-2.342;2022-11-20T00:24:02;12.40;;;7.68;;
53890;SDS011;41337;51.400;-2.342;2022-11-20T00:29:04;14.05;;;7.10;;
53890;SDS011;41337;51.400;-2.342;2022-11-20T00:34:09;13.38;;;6.93;;
53890;SDS011;41337;51.400;-2.342;2022-11-20T00:39:10;11.80;;;6.20;;
53890;SDS011;41337;51.400;-2.342;2022-11-20T00:44:14;16.48;;;6.85;;
53890;SDS011;41337;51.400;-2.342;2022-11-20T00:49:15;15.43;;;7.95;;
53890;SDS011;41337;51.400;-2.342;2022-11-20T00:54:16;12.90;;;6.75;;
53890;SDS011;41337;51.400;-2.342;2022-11-20T00:59:20;15.05;;;6.85;;
53890;SDS011;41337;51.400;-2.342;2022-11-20T01:04:21;17.45;;;7.55;;
53890;SDS011;41337;51.400;-2.342;2022-11-20T01:09:22;14.35;;;7.88;;
53890;SDS011;41337;51.400;-2.342;2022-11-20T01:14:23;18.73;;;9.40;;
53890;SDS011;41337;51.400;-2.342;2022-11-20T01:19:24;18.60;;;9.35;;
53890;SDS011;41337;51.400;-2.342;2022-11-20T01:24:28;12.57;;;8.50;;
53890;SDS011;41337;51.400;-2.342;2022-11-20T01:29:28;21.63;;;9.80;;
53890;SDS011;41337;51.400;-2.342;2022-11-20T01:34:29;18.15;;;9.38;;
53890;SDS011;41337;51.400;-2.342;2022-11-20T01:39:30;17.85;;;10.75;;
53890;SDS011;41337;51.400;-2.342;2022-11-20T01:44:56;21.55;;;11.70;;
53890;SDS011;41337;51.400;-2.342;2022-11-20T01:50:04;22.55;;;12.02;;
53890;SDS011;41337;51.400;-2.342;2022-11-20T01:55:39;17.67;;;10.07;;
53890;SDS011;41337;51.400;-2.342;2022-11-20T02:00:46;21.88;;;12.65;;
53890;SDS011;41337;51.400;-2.342;2022-11-20T02:11:18;19.08;;;11.18;;
53890;SDS011;41337;51.400;-2.342;2022-11-20T02:16:27;17.48;;;10.32;;
53890;SDS011;41337;51.400;-2.342;2022-11-20T02:21:46;18.77;;;10.87;;
53890;SDS011;41337;51.400;-2.342;2022-11-20T02:26:58;18.05;;;9.85;;
53890;SDS011;41337;51.400;-2.342;2022-11-20T02:32:06;13.35;;;8.88;;
53890;SDS011;41337;51.400;-2.342;2022-11-20T02:37:17;12.90;;;8.20;;
53890;SDS011;41337;51.400;-2.342;2022-11-20T02:42:22;16.08;;;8.55;;
53890;SDS011;41337;51.400;-2.342;2022-11-20T02:47:23;11.30;;;7.10;;
53890;SDS011;41337;51.400;-2.342;2022-11-20T02:52:24;12.70;;;7.43;;
53890;SDS011;41337;51.400;-2.342;2022-11-20T02:57:25;11.95;;;6.88;;
53890;SDS011;41337;51.400;-2.342;2022-11-20T03:08:52;7.95;;;5.82;;
53890;SDS011;41337;51.400;-2.342;2022-11-20T03:13:53;8.73;;;6.13;;
53890;SDS011;41337;51.400;-2.342;2022-11-20T03:18:54;6.80;;;5.00;;
53890;SDS011;41337;51.400;-2.342;2022-11-20T03:23:55;6.82;;;6.10;;
53890;SDS011;41337;51.400;-2.342;2022-11-20T03:28:57;7.63;;;5.38;;
53890;SDS011;41337;51.400;-2.342;2022-11-20T03:34:03;8.52;;;6.15;;
53890;SDS011;41337;51.400;-2.342;2022-11-20T03:39:04;9.90;;;5.32;;
53890;SDS011;41337;51.400;-2.342;2022-11-20T03:44:09;4.18;;;3.65;;
53890;SDS011;41337;51.400;-2.342;2022-11-20T03:49:11;3.80;;;3.47;;
53890;SDS011;41337;51.400;-2.342;2022-11-20T03:54:12;7.13;;;4.90;;
53890;SDS011;41337;51.400;-2.342;2022-11-20T03:59:18;5.47;;;4.55;;
53890;SDS011;41337;51.400;-2.342;2022-11-20T04:04:19;5.40;;;4.07;;
53890;SDS011;41337;51.400;-2.342;2022-11-20T04:09:20;4.63;;;4.05;;
53890;SDS011;41337;51.400;-2.342;2022-11-20T04:14:21;13.75;;;5.95;;
53890;SDS011;41337;51.400;-2.342;2022-11-20T04:19:28;10.63;;;6.05;;
53890;SDS011;41337;51.400;-2.342;2022-11-20T04:24:29;10.35;;;5.20;;
53890;SDS011;41337;51.400;-2.342;2022-11-20T04:29:29;11.93;;;6.28;;
53890;SDS011;41337;51.400;-2.342;2022-11-20T04:34:36;6.50;;;5.15;;
53890;SDS011;41337;51.400;-2.342;2022-11-20T04:39:37;11.55;;;5.78;;
53890;SDS011;41337;51.400;-2.342;2022-11-20T04:44:38;7.72;;;5.13;;
53890;SDS011;41337;51.400;-2.342;2022-11-20T04:49:39;7.32;;;5.43;;
53890;SDS011;41337;51.400;-2.342;2022-11-20T04:54:40;9.30;;;6.13;;
53890;SDS011;41337;51.400;-2.342;2022-11-20T04:59:47;5.90;;;5.28;;
53890;SDS011;41337;51.400;-2.342;2022-11-20T05:04:47;7.78;;;5.45;;
53890;SDS011;41337;51.400;-2.342;2022-11-20T05:09:48;26.83;;;7.60;;
53890;SDS011;41337;51.400;-2.342;2022-11-20T05:14:49;6.40;;;5.63;;
53890;SDS011;41337;51.400;-2.342;2022-11-20T05:19:50;4.75;;;3.60;;
53890;SDS011;41337;51.400;-2.342;2022-11-20T05:24:51;4.05;;;2.28;;
53890;SDS011;41337;51.400;-2.342;2022-11-20T05:29:57;4.13;;;1.40;;
53890;SDS011;41337;51.400;-2.342;2022-11-20T05:34:58;7.85;;;1.90;;
53890;SDS011;41337;51.400;-2.342;2022-11-20T05:39:59;6.10;;;1.58;;
53890;SDS011;41337;51.400;-2.342;2022-11-20T05:45:00;6.22;;;1.63;;
53890;SDS011;41337;51.400;-2.342;2022-11-20T05:50:06;10.27;;;1.88;;
53890;SDS011;41337;51.400;-2.342;2022-11-20T05:55:07;6.47;;;1.88;;
53890;SDS011;41337;51.400;-2.342;2022-11-20T06:00:08;10.02;;;2.50;;
53890;SDS011;41337;51.400;-2.342;2022-11-20T06:05:10;6.35;;;2.88;;
53890;SDS011;41337;51.400;-2.342;2022-11-20T06:10:11;7.60;;;2.50;;
53890;SDS011;41337;51.400;-2.342;2022-11-20T06:15:12;11.45;;;2.58;;
53890;SDS011;41337;51.400;-2.342;2022-11-20T06:20:20;8.40;;;2.20;;
53890;SDS011;41337;51.400;-2.342;2022-11-20T06:25:21;12.60;;;2.30;;
53890;SDS011;41337;51.400;-2.342;2022-11-20T06:30:28;18.52;;;2.65;;
53890;SDS011;41337;51.400;-2.342;2022-11-20T06:35:29;9.95;;;2.40;;
53890;SDS011;41337;51.400;-2.342;2022-11-20T06:40:30;21.10;;;3.72;;
53890;SDS011;41337;51.400;-2.342;2022-11-20T06:45:31;16.70;;;3.42;;
53890;SDS011;41337;51.400;-2.342;2022-11-20T06:50:31;26.58;;;4.13;;
53890;SDS011;41337;51.400;-2.342;2022-11-20T06:55:32;23.35;;;3.25;;
53890;SDS011;41337;51.400;-2.342;2022-11-20T07:00:42;28.63;;;4.70;;
53890;SDS011;41337;51.400;-2.342;2022-11-20T07:05:44;28.20;;;4.20;;
53890;SDS011;41337;51.400;-2.342;2022-11-20T07:10:48;28.02;;;2.90;;
53890;SDS011;41337;51.400;-2.342;2022-11-20T07:15:49;23.80;;;4.05;;
53890;SDS011;41337;51.400;-2.342;2022-11-20T07:20:50;32.22;;;3.60;;
53890;SDS011;41337;51.400;-2.342;2022-11-20T07:25:50;20.67;;;3.75;;
53890;SDS011;41337;51.400;-2.342;2022-11-20T07:30:52;32.05;;;4.63;;
53890;SDS011;41337;51.400;-2.342;2022-11-20T07:35:53;15.55;;;3.67;;
53890;SDS011;41337;51.400;-2.342;2022-11-20T07:40:54;19.58;;;3.58;;
53890;SDS011;41337;51.400;-2.342;2022-11-20T07:46:01;16.98;;;3.60;;
53890;SDS011;41337;51.400;-2.342;2022-11-20T07:51:03;15.48;;;3.42;;
53890;SDS011;41337;51.400;-2.342;2022-11-20T07:56:05;14.48;;;3.78;;
53890;SDS011;41337;51.400;-2.342;2022-11-20T08:01:11;27.38;;;4.72;;
53890;SDS011;41337;51.400;-2.342;2022-11-20T08:06:12;19.85;;;3.97;;
53890;SDS011;41337;51.400;-2.342;2022-11-20T08:11:14;16.73;;;3.42;;
53890;SDS011;41337;51.400;-2.342;2022-11-20T08:16:34;34.55;;;8.68;;
53890;SDS011;41337;51.400;-2.342;2022-11-20T08:21:48;24.95;;;5.50;;
53890;SDS011;41337;51.400;-2.342;2022-11-20T08:26:49;31.58;;;6.03;;
53890;SDS011;41337;51.400;-2.342;2022-11-20T08:31:50;20.98;;;5.65;;
53890;SDS011;41337;51.400;-2.342;2022-11-20T08:36:51;31.60;;;6.20;;
53890;SDS011;41337;51.400;-2.342;2022-11-20T08:41:52;30.17;;;7.32;;
53890;SDS011;41337;51.400;-2.342;2022-11-20T08:46:53;28.17;;;5.18;;
53890;SDS011;41337;51.400;-2.342;2022-11-20T08:52:00;19.17;;;3.60;;
53890;SDS011;41337;51.400;-2.342;2022-11-20T08:57:01;29.02;;;5.43;;
53890;SDS011;41337;51.400;-2.342;2022-11-20T09:02:02;23.65;;;5.15;;
53890;SDS011;41337;51.400;-2.342;2022-11-20T09:07:02;23.20;;;4.88;;
53890;SDS011;41337;51.400;-2.342;2022-11-20T09:12:03;27.60;;;4.45;;
53890;SDS011;41337;51.400;-2.342;2022-11-20T09:17:29;29.90;;;4.70;;
53890;SDS011;41337;51.400;-2.342;2022-11-20T09:22:30;22.77;;;5.15;;
53890;SDS011;41337;51.400;-2.342;2022-11-20T09:27:31;35.08;;;5.80;;
53890;SDS011;41337;51.400;-2.342;2022-11-20T09:32:32;33.00;;;5.22;;
53890;SDS011;41337;51.400;-2.342;2022-11-20T09:37:32;28.73;;;6.03;;
53890;SDS011;41337;51.400;-2.342;2022-11-20T09:58:52;31.02;;;5.95;;
53890;SDS011;41337;51.400;-2.342;2022-11-20T10:04:10;33.50;;;5.72;;
53890;SDS011;41337;51.400;-2.342;2022-11-20T10:09:25;29.65;;;3.85;;
53890;SDS011;41337;51.400;-2.342;2022-11-20T10:14:59;29.00;;;4.30;;
53890;SDS011;41337;51.400;-2.342;2022-11-20T10:26:03;28.38;;;5.55;;
53890;SDS011;41337;51.400;-2.342;2022-11-20T10:36:47;25.73;;;4.90;;
53890;SDS011;41337;51.400;-2.342;2022-11-20T10:42:03;25.02;;;5.07;;
53890;SDS011;41337;51.400;-2.342;2022-11-20T10:47:17;30.17;;;4.57;;
53890;SDS011;41337;51.400;-2.342;2022-11-20T11:03:28;22.90;;;4.30;;
53890;SDS011;41337;51.400;-2.342;2022-11-20T11:08:32;23.50;;;4.90;;
53890;SDS011;41337;51.400;-2.342;2022-11-20T11:13:39;25.75;;;4.32;;
53890;SDS011;41337;51.400;-2.342;2022-11-20T11:18:39;25.40;;;3.88;;
53890;SDS011;41337;51.400;-2.342;2022-11-20T11:23:42;22.73;;;3.75;;
53890;SDS011;41337;51.400;-2.342;2022-11-20T11:28:58;17.10;;;2.92;;
53890;SDS011;41337;51.400;-2.342;2022-11-20T11:39:08;16.52;;;2.75;;
53890;SDS011;41337;51.400;-2.342;2022-11-20T11:44:28;17.95;;;2.78;;
53890;SDS011;41337;51.400;-2.342;2022-11-20T11:55:31;15.48;;;3.33;;
53890;SDS011;41337;51.400;-2.342;2022-11-20T12:01:01;21.05;;;3.92;;
53890;SDS011;41337;51.400;-2.342;2022-11-20T12:06:22;14.10;;;3.20;;
53890;SDS011;41337;51.400;-2.342;2022-11-20T12:11:43;20.08;;;4.40;;
53890;SDS011;41337;51.400;-2.342;2022-11-20T12:17:01;14.65;;;2.58;;
53890;SDS011;41337;51.400;-2.342;2022-11-20T12:55:28;8.60;;;1.83;;
53890;SDS011;41337;51.400;-2.342;2022-11-20T13:00:43;11.25;;;1.73;;
53890;SDS011;41337;51.400;-2.342;2022-11-20T13:16:29;12.18;;;1.60;;
53890;SDS011;41337;51.400;-2.342;2022-11-20T13:21:54;11.90;;;1.88;;
53890;SDS011;41337;51.400;-2.342;2022-11-20T13:32:14;8.60;;;1.05;;
53890;SDS011;41337;51.400;-2.342;2022-11-20T13:37:25;12.68;;;2.55;;
53890;SDS011;41337;51.400;-2.342;2022-11-20T13:42:30;14.50;;;1.40;;
53890;SDS011;41337;51.400;-2.342;2022-11-20T13:47:46;13.75;;;1.70;;
53890;SDS011;41337;51.400;-2.342;2022-11-20T14:03:45;10.35;;;1.60;;
53890;SDS011;41337;51.400;-2.342;2022-11-20T14:08:47;12.57;;;1.50;;
53890;SDS011;41337;51.400;-2.342;2022-11-20T14:14:01;5.43;;;1.00;;
53890;SDS011;41337;51.400;-2.342;2022-11-20T14:24:23;12.55;;;1.40;;
53890;SDS011;41337;51.400;-2.342;2022-11-20T14:29:34;5.13;;;0.75;;
53890;SDS011;41337;51.400;-2.342;2022-11-20T14:34:51;5.35;;;1.00;;
53890;SDS011;41337;51.400;-2.342;2022-11-20T14:40:21;6.00;;;0.70;;
53890;SDS011;41337;51.400;-2.342;2022-11-20T14:45:25;1.98;;;0.50;;
53890;SDS011;41337;51.400;-2.342;2022-11-20T14:50:27;4.90;;;0.63;;
53890;SDS011;41337;51.400;-2.342;2022-11-20T14:55:36;3.17;;;0.90;;
53890;SDS011;41337;51.400;-2.342;2022-11-20T15:00:38;6.40;;;1.10;;
53890;SDS011;41337;51.400;-2.342;2022-11-20T15:05:54;2.47;;;1.00;;
53890;SDS011;41337;51.400;-2.342;2022-11-20T15:10:55;8.75;;;1.77;;
53890;SDS011;41337;51.400;-2.342;2022-11-20T15:15:56;12.00;;;1.63;;
53890;SDS011;41337;51.400;-2.342;2022-11-20T15:21:03;8.82;;;1.50;;
53890;SDS011;41337;51.400;-2.342;2022-11-20T15:26:10;10.88;;;1.60;;
53890;SDS011;41337;51.400;-2.342;2022-11-20T15:31:14;20.45;;;2.85;;
53890;SDS011;41337;51.400;-2.342;2022-11-20T15:36:19;17.27;;;2.10;;
53890;SDS011;41337;51.400;-2.342;2022-11-20T15:41:20;11.23;;;1.88;;
53890;SDS011;41337;51.400;-2.342;2022-11-20T15:46:25;9.07;;;1.58;;
53890;SDS011;41337;51.400;-2.342;2022-11-20T15:51:44;12.70;;;4.22;;
53890;SDS011;41337;51.400;-2.342;2022-11-20T15:56:48;8.30;;;1.35;;
53890;SDS011;41337;51.400;-2.342;2022-11-20T16:01:52;13.55;;;1.58;;
53890;SDS011;41337;51.400;-2.342;2022-11-20T16:06:56;13.13;;;2.50;;
53890;SDS011;41337;51.400;-2.342;2022-11-20T16:11:57;5.50;;;1.10;;
53890;SDS011;41337;51.400;-2.342;2022-11-20T16:17:05;6.33;;;1.07;;
53890;SDS011;41337;51.400;-2.342;2022-11-20T16:22:06;10.77;;;1.63;;
53890;SDS011;41337;51.400;-2.342;2022-11-20T16:27:06;9.88;;;1.63;;
53890;SDS011;41337;51.400;-2.342;2022-11-20T16:32:07;5.85;;;1.25;;
53890;SDS011;41337;51.400;-2.342;2022-11-20T16:37:10;7.43;;;1.40;;
53890;SDS011;41337;51.400;-2.342;2022-11-20T16:42:10;6.13;;;1.67;;
53890;SDS011;41337;51.400;-2.342;2022-11-20T16:47:19;11.93;;;3.03;;
53890;SDS011;41337;51.400;-2.342;2022-11-20T16:52:19;10.13;;;3.78;;
53890;SDS011;41337;51.400;-2.342;2022-11-20T16:57:21;10.73;;;3.45;;
53890;SDS011;41337;51.400;-2.342;2022-11-20T17:02:25;12.82;;;4.20;;
53890;SDS011;41337;51.400;-2.342;2022-11-20T17:07:26;7.88;;;2.03;;
53890;SDS011;41337;51.400;-2.342;2022-11-20T17:12:27;8.43;;;2.60;;
53890;SDS011;41337;51.400;-2.342;2022-11-20T17:17:28;7.32;;;2.13;;
53890;SDS011;41337;51.400;-2.342;2022-11-20T17:22:30;7.53;;;2.00;;
53890;SDS011;41337;51.400;-2.342;2022-11-20T17:27:37;6.30;;;2.05;;
53890;SDS011;41337;51.400;-2.342;2022-11-20T17:32:37;9.40;;;1.65;;
53890;SDS011;41337;51.400;-2.342;2022-11-20T17:37:44;7.00;;;1.35;;
53890;SDS011;41337;51.400;-2.342;2022-11-20T17:42:45;9.27;;;1.35;;
53890;SDS011;41337;51.400;-2.342;2022-11-20T17:47:45;10.85;;;1.70;;
53890;SDS011;41337;51.400;-2.342;2022-11-20T18:18:14;19.92;;;6.65;;
53890;SDS011;41337;51.400;-2.342;2022-11-20T18:23:15;8.95;;;3.45;;
53890;SDS011;41337;51.400;-2.342;2022-11-20T18:28:16;22.13;;;7.43;;
53890;SDS011;41337;51.400;-2.342;2022-11-20T18:33:19;9.23;;;3.05;;
53890;SDS011;41337;51.400;-2.342;2022-11-20T18:38:24;4.95;;;2.20;;
53890;SDS011;41337;51.400;-2.342;2022-11-20T18:43:25;10.32;;;2.90;;
53890;SDS011;41337;51.400;-2.342;2022-11-20T18:48:44;11.55;;;3.33;;
53890;SDS011;41337;51.400;-2.342;2022-11-20T18:53:45;12.18;;;3.88;;
53890;SDS011;41337;51.400;-2.342;2022-11-20T18:58:46;10.85;;;4.25;;
53890;SDS011;41337;51.400;-2.342;2022-11-20T19:03:51;15.25;;;5.22;;
53890;SDS011;41337;51.400;-2.342;2022-11-20T19:08:51;16.73;;;5.53;;
53890;SDS011;41337;51.400;-2.342;2022-11-20T19:13:53;12.57;;;5.47;;
53890;SDS011;41337;51.400;-2.342;2022-11-20T19:18:53;33.88;;;13.30;;
53890;SDS011;41337;51.400;-2.342;2022-11-20T19:23:55;35.30;;;12.70;;
53890;SDS011;41337;51.400;-2.342;2022-11-20T19:29:01;25.95;;;9.95;;
53890;SDS011;41337;51.400;-2.342;2022-11-20T19:34:03;26.23;;;10.77;;
53890;SDS011;41337;51.400;-2.342;2022-11-20T19:39:04;41.67;;;15.82;;
53890;SDS011;41337;51.400;-2.342;2022-11-20T19:49:14;27.48;;;8.63;;
53890;SDS011;41337;51.400;-2.342;2022-11-20T19:54:15;22.63;;;9.18;;
53890;SDS011;41337;51.400;-2.342;2022-11-20T19:59:19;24.60;;;9.77;;
53890;SDS011;41337;51.400;-2.342;2022-11-20T20:04:20;23.70;;;11.25;;
53890;SDS011;41337;51.400;-2.342;2022-11-20T20:09:21;37.72;;;15.68;;
53890;SDS011;41337;51.400;-2.342;2022-11-20T20:14:22;25.20;;;8.52;;
53890;SDS011;41337;51.400;-2.342;2022-11-20T20:19:23;27.42;;;9.30;;
53890;SDS011;41337;51.400;-2.342;2022-11-20T20:24:24;27.02;;;9.52;;
53890;SDS011;41337;51.400;-2.342;2022-11-20T20:29:25;28.83;;;11.52;;
53890;SDS011;41337;51.400;-2.342;2022-11-20T20:34:26;31.00;;;13.63;;
53890;SDS011;41337;51.400;-2.342;2022-11-20T20:39:51;58.22;;;15.05;;
53890;SDS011;41337;51.400;-2.342;2022-11-20T20:44:52;33.47;;;14.75;;
53890;SDS011;41337;51.400;-2.342;2022-11-20T20:50:10;59.77;;;27.30;;
53890;SDS011;41337;51.400;-2.342;2022-11-20T20:55:12;32.45;;;12.55;;
53890;SDS011;41337;51.400;-2.342;2022-11-20T21:00:16;22.83;;;9.18;;
53890;SDS011;41337;51.400;-2.342;2022-11-20T21:05:17;18.75;;;7.90;;
53890;SDS011;41337;51.400;-2.342;2022-11-20T21:10:18;41.58;;;10.43;;
53890;SDS011;41337;51.400;-2.342;2022-11-20T21:15:19;30.55;;;12.55;;
53890;SDS011;41337;51.400;-2.342;2022-11-20T21:20:20;31.83;;;13.18;;
53890;SDS011;41337;51.400;-2.342;2022-11-20T21:25:45;31.73;;;12.77;;
53890;SDS011;41337;51.400;-2.342;2022-11-20T21:30:46;34.25;;;14.77;;
53890;SDS011;41337;51.400;-2.342;2022-11-20T21:35:47;24.42;;;10.52;;
53890;SDS011;41337;51.400;-2.342;2022-11-20T21:40:48;23.73;;;11.25;;
53890;SDS011;41337;51.400;-2.342;2022-11-20T21:45:49;33.53;;;13.80;;
53890;SDS011;41337;51.400;-2.342;2022-11-20T21:50:51;39.20;;;15.70;;
53890;SDS011;41337;51.400;-2.342;2022-11-20T21:55:55;43.00;;;17.30;;
53890;SDS011;41337;51.400;-2.342;2022-11-20T22:00:59;31.52;;;14.73;;
53890;SDS011;41337;51.400;-2.342;2022-11-20T22:06:08;35.92;;;14.68;;
53890;SDS011;41337;51.400;-2.342;2022-11-20T22:11:10;46.80;;;19.35;;
53890;SDS011;41337;51.400;-2.342;2022-11-20T22:16:16;44.72;;;17.58;;
53890;SDS011;41337;51.400;-2.342;2022-11-20T22:21:18;42.88;;;24.65;;
53890;SDS011;41337;51.400;-2.342;2022-11-20T22:26:22;47.67;;;23.45;;
53890;SDS011;41337;51.400;-2.342;2022-11-20T22:31:27;69.05;;;24.98;;
53890;SDS011;41337;51.400;-2.342;2022-11-20T22:36:30;60.13;;;24.42;;
53890;SDS011;41337;51.400;-2.342;2022-11-20T22:41:31;47.20;;;20.42;;
53890;SDS011;41337;51.400;-2.342;2022-11-20T22:46:34;52.05;;;20.33;;
53890;SDS011;41337;51.400;-2.342;2022-11-20T22:51:38;41.22;;;17.73;;
53890;SDS011;41337;51.400;-2.342;2022-11-20T22:56:40;40.38;;;18.15;;
53890;SDS011;41337;51.400;-2.342;2022-11-20T23:01:41;38.97;;;16.58;;
53890;SDS011;41337;51.400;-2.342;2022-11-20T23:06:42;37.70;;;15.98;;
53890;SDS011;41337;51.400;-2.342;2022-11-20T23:11:46;52.92;;;20.65;;
53890;SDS011;41337;51.400;-2.342;2022-11-20T23:16:51;60.85;;;26.25;;
53890;SDS011;41337;51.400;-2.342;2022-11-20T23:21:52;53.38;;;23.38;;
53890;SDS011;41337;51.400;-2.342;2022-11-20T23:26:53;46.40;;;19.83;;
53890;SDS011;41337;51.400;-2.342;2022-11-20T23:31:59;52.72;;;21.92;;
53890;SDS011;41337;51.400;-2.342;2022-11-20T23:37:00;38.78;;;16.45;;
53890;SDS011;41337;51.400;-2.342;2022-11-20T23:42:01;41.60;;;11.90;;
53890;SDS011;41337;51.400;-2.342;2022-11-20T23:47:02;25.17;;;9.05;;
53890;SDS011;41337;51.400;-2.342;2022-11-20T23:52:03;19.98;;;8.18;;
53890;SDS011;41337;51.400;-2.342;2022-11-20T23:57:03;18.30;;;8.13;;
